Aeroporto :
LOGIN :

Iscrizione | Disclaimer

   EN    FR    IT 

 










Sommario :    VFR   VFR Marginale   IFR   IFR Intensivo   IFR Molto Intensivo
Visibilità : 
Base nubi : 
>= 8 km
>= 3000ft
5 / 8 km
1000 / 3000 ft
1500m / 5 km
500 / 1000 ft
800 / 1500m
200 / 500 ft
< 800m
< 200 ft
Simboli :   Temporali  Nebbia  Neve Forte  Precipitazioni Forti  Vento > 20 kt
SIGMETs :   Varie  Temporali  Ghiacco  Turbolenza  Onda orograficha  Ceneri Vulcaniche







- Altitudine del aeroporto : 404 ft
- Codice IATA : WRO


EPWR - Wroclaw

ULTIMO METAR :
  • 191430Z 30014KT 9999 SCT047 08/M04 Q1025

METARs OBSOLETI :
  • 191400Z 31009KT 290V360 9999 SCT049 08/M04 Q1025
  • 191330Z 29010KT 260V320 CAVOK 07/M05 Q1025
  • 191300Z 32008KT 280V040 9999 FEW048 07/M05 Q1025
  • 191230Z 30012KT 260V340 9999 FEW045 07/M04 Q1025
  • 191200Z 30014KT 9999 FEW040CB 07/M03 Q1025

TAF TAF EPWR
Valido dal 19 a 15 ore il 20 a 15 ore UTC


191430Z 1915/2015 28005KT 9999 SCT030
TEMPO 1915/1918 SHRA BKN020CB
TEMPO 2003/2007 3000 BR
Nessun NOTAM noto per questo aeroporto.



MetMap, La meteo Aeronautica in un colpo d'occhio ! - Copyright ORBIFLY Dicembre 2007 - Disclaimer

ORBIFLY MET'MAP TEAM :

Programmazione e sviluppo : Alexandra Zaïnal
Concezione e sviluppo : Baudouin d'Aumeries
Co-Programmazione e sviluppo : Marc-Olivier Méhu
Supporto tecnico e logistico : Manuel Goepfert
Aiuto per la traduzione : Arnaldo La Scala

Contatto : metmap@orbifly.com




FONTI E CREDITI :

   NOAA